sensor_id;sensor_type;location;lat;lon;timestamp;temperature;humidity
13123;DHT22;6627;50.920;12.050;2023-04-19T00:01:55;9.10;99.90
13123;DHT22;6627;50.920;12.050;2023-04-19T00:04:25;9.20;99.90
13123;DHT22;6627;50.920;12.050;2023-04-19T00:07:13;9.20;99.90
13123;DHT22;6627;50.920;12.050;2023-04-19T00:09:41;9.10;99.90
13123;DHT22;6627;50.920;12.050;2023-04-19T00:12:09;9.10;99.90
13123;DHT22;6627;50.920;12.050;2023-04-19T00:14:36;9.10;99.90
13123;DHT22;6627;50.920;12.050;2023-04-19T00:17:03;9.10;99.90
13123;DHT22;6627;50.920;12.050;2023-04-19T00:19:30;9.10;99.90
13123;DHT22;6627;50.920;12.050;2023-04-19T00:21:58;9.10;99.90
13123;DHT22;6627;50.920;12.050;2023-04-19T00:29:29;8.90;99.90
13123;DHT22;6627;50.920;12.050;2023-04-19T00:31:57;8.90;99.90
13123;DHT22;6627;50.920;12.050;2023-04-19T00:34:23;8.90;99.90
13123;DHT22;6627;50.920;12.050;2023-04-19T00:36:51;8.90;99.90
13123;DHT22;6627;50.920;12.050;2023-04-19T00:39:18;8.90;99.90
13123;DHT22;6627;50.920;12.050;2023-04-19T00:44:17;8.90;99.90
13123;DHT22;6627;50.920;12.050;2023-04-19T00:46:44;8.80;99.90
13123;DHT22;6627;50.920;12.050;2023-04-19T00:49:12;8.90;99.90
13123;DHT22;6627;50.920;12.050;2023-04-19T00:51:39;8.80;99.90
13123;DHT22;6627;50.920;12.050;2023-04-19T00:54:06;8.80;99.90
13123;DHT22;6627;50.920;12.050;2023-04-19T00:56:34;8.80;99.90
13123;DHT22;6627;50.920;12.050;2023-04-19T00:59:03;8.80;99.90
13123;DHT22;6627;50.920;12.050;2023-04-19T01:01:30;8.70;99.90
13123;DHT22;6627;50.920;12.050;2023-04-19T01:03:59;8.70;99.90
13123;DHT22;6627;50.920;12.050;2023-04-19T01:06:27;8.70;99.90
13123;DHT22;6627;50.920;12.050;2023-04-19T01:08:55;8.70;99.90
13123;DHT22;6627;50.920;12.050;2023-04-19T01:11:23;8.70;99.90
13123;DHT22;6627;50.920;12.050;2023-04-19T01:13:51;8.60;99.90
13123;DHT22;6627;50.920;12.050;2023-04-19T01:16:19;8.60;99.90
13123;DHT22;6627;50.920;12.050;2023-04-19T01:18:47;8.60;99.90
13123;DHT22;6627;50.920;12.050;2023-04-19T01:21:14;8.60;99.90
13123;DHT22;6627;50.920;12.050;2023-04-19T01:23:43;8.60;99.90
13123;DHT22;6627;50.920;12.050;2023-04-19T01:26:11;8.60;99.90
13123;DHT22;6627;50.920;12.050;2023-04-19T01:28:38;8.50;99.90
13123;DHT22;6627;50.920;12.050;2023-04-19T01:31:06;8.50;99.90
13123;DHT22;6627;50.920;12.050;2023-04-19T01:33:33;8.50;99.90
13123;DHT22;6627;50.920;12.050;2023-04-19T01:36:00;8.50;99.90
13123;DHT22;6627;50.920;12.050;2023-04-19T01:38:27;8.50;99.90
13123;DHT22;6627;50.920;12.050;2023-04-19T01:40:55;8.50;99.90
13123;DHT22;6627;50.920;12.050;2023-04-19T01:43:22;8.50;99.90
13123;DHT22;6627;50.920;12.050;2023-04-19T01:45:50;8.40;99.90
13123;DHT22;6627;50.920;12.050;2023-04-19T01:48:17;8.50;99.90
13123;DHT22;6627;50.920;12.050;2023-04-19T01:50:45;8.30;99.90
13123;DHT22;6627;50.920;12.050;2023-04-19T01:53:12;8.40;99.90
13123;DHT22;6627;50.920;12.050;2023-04-19T01:55:39;8.40;99.90
13123;DHT22;6627;50.920;12.050;2023-04-19T01:58:08;8.30;99.90
13123;DHT22;6627;50.920;12.050;2023-04-19T02:00:35;8.20;99.90
13123;DHT22;6627;50.920;12.050;2023-04-19T02:03:02;8.20;99.90
13123;DHT22;6627;50.920;12.050;2023-04-19T02:05:29;8.20;99.90
13123;DHT22;6627;50.920;12.050;2023-04-19T02:07:56;8.10;99.90
13123;DHT22;6627;50.920;12.050;2023-04-19T02:10:26;8.10;99.90
13123;DHT22;6627;50.920;12.050;2023-04-19T02:12:53;8.00;99.90
13123;DHT22;6627;50.920;12.050;2023-04-19T02:17:49;8.10;99.90
13123;DHT22;6627;50.920;12.050;2023-04-19T02:20:17;8.00;99.90
13123;DHT22;6627;50.920;12.050;2023-04-19T02:22:44;8.00;99.90
13123;DHT22;6627;50.920;12.050;2023-04-19T02:25:12;8.00;99.90
13123;DHT22;6627;50.920;12.050;2023-04-19T02:27:40;7.90;99.90
13123;DHT22;6627;50.920;12.050;2023-04-19T02:30:08;7.80;99.90
13123;DHT22;6627;50.920;12.050;2023-04-19T02:32:37;7.80;99.90
13123;DHT22;6627;50.920;12.050;2023-04-19T02:35:05;7.80;99.90
13123;DHT22;6627;50.920;12.050;2023-04-19T02:37:32;7.80;99.90
13123;DHT22;6627;50.920;12.050;2023-04-19T02:39:59;7.60;99.90
13123;DHT22;6627;50.920;12.050;2023-04-19T02:42:27;7.60;99.90
13123;DHT22;6627;50.920;12.050;2023-04-19T02:44:54;7.60;99.90
13123;DHT22;6627;50.920;12.050;2023-04-19T02:47:21;7.60;99.90
13123;DHT22;6627;50.920;12.050;2023-04-19T02:49:50;7.50;99.90
13123;DHT22;6627;50.920;12.050;2023-04-19T02:52:17;7.40;99.90
13123;DHT22;6627;50.920;12.050;2023-04-19T02:54:44;7.40;99.90
13123;DHT22;6627;50.920;12.050;2023-04-19T02:57:12;7.40;99.90
13123;DHT22;6627;50.920;12.050;2023-04-19T02:59:39;7.40;99.90
13123;DHT22;6627;50.920;12.050;2023-04-19T03:02:06;7.40;99.90
13123;DHT22;6627;50.920;12.050;2023-04-19T03:04:33;7.20;99.90
13123;DHT22;6627;50.920;12.050;2023-04-19T03:07:02;7.20;99.90
13123;DHT22;6627;50.920;12.050;2023-04-19T03:09:30;7.20;99.90
13123;DHT22;6627;50.920;12.050;2023-04-19T03:11:58;7.30;99.90
13123;DHT22;6627;50.920;12.050;2023-04-19T03:14:25;7.10;99.90
13123;DHT22;6627;50.920;12.050;2023-04-19T03:16:52;7.10;99.90
13123;DHT22;6627;50.920;12.050;2023-04-19T03:19:20;7.10;99.90
13123;DHT22;6627;50.920;12.050;2023-04-19T03:21:47;7.10;99.90
13123;DHT22;6627;50.920;12.050;2023-04-19T03:24:17;7.10;99.90
13123;DHT22;6627;50.920;12.050;2023-04-19T03:26:45;7.10;99.90
13123;DHT22;6627;50.920;12.050;2023-04-19T03:29:12;7.10;99.90
13123;DHT22;6627;50.920;12.050;2023-04-19T03:31:39;7.00;99.90
13123;DHT22;6627;50.920;12.050;2023-04-19T03:34:07;6.90;99.90
13123;DHT22;6627;50.920;12.050;2023-04-19T03:36:34;6.90;99.90
13123;DHT22;6627;50.920;12.050;2023-04-19T03:39:02;6.90;99.90
13123;DHT22;6627;50.920;12.050;2023-04-19T03:41:30;6.80;99.90
13123;DHT22;6627;50.920;12.050;2023-04-19T03:43:58;6.80;99.90
13123;DHT22;6627;50.920;12.050;2023-04-19T03:46:25;6.80;99.90
13123;DHT22;6627;50.920;12.050;2023-04-19T03:48:56;6.70;99.90
13123;DHT22;6627;50.920;12.050;2023-04-19T03:51:23;6.70;99.90
13123;DHT22;6627;50.920;12.050;2023-04-19T03:53:51;6.60;99.90
13123;DHT22;6627;50.920;12.050;2023-04-19T03:56:19;6.70;99.90
13123;DHT22;6627;50.920;12.050;2023-04-19T03:58:49;6.70;99.90
13123;DHT22;6627;50.920;12.050;2023-04-19T04:01:17;6.60;99.90
13123;DHT22;6627;50.920;12.050;2023-04-19T04:03:44;6.70;99.90
13123;DHT22;6627;50.920;12.050;2023-04-19T04:06:12;6.60;99.90
13123;DHT22;6627;50.920;12.050;2023-04-19T04:08:39;6.60;99.90
13123;DHT22;6627;50.920;12.050;2023-04-19T04:11:07;6.70;99.90
13123;DHT22;6627;50.920;12.050;2023-04-19T04:13:35;6.70;99.90
13123;DHT22;6627;50.920;12.050;2023-04-19T04:16:05;6.60;99.90
13123;DHT22;6627;50.920;12.050;2023-04-19T04:18:32;6.50;99.90
13123;DHT22;6627;50.920;12.050;2023-04-19T04:21:04;6.50;99.90
13123;DHT22;6627;50.920;12.050;2023-04-19T04:23:32;6.40;99.90
13123;DHT22;6627;50.920;12.050;2023-04-19T04:26:00;6.40;99.90
13123;DHT22;6627;50.920;12.050;2023-04-19T04:28:30;6.30;99.90
13123;DHT22;6627;50.920;12.050;2023-04-19T04:30:58;6.30;99.90
13123;DHT22;6627;50.920;12.050;2023-04-19T04:33:27;6.30;99.90
13123;DHT22;6627;50.920;12.050;2023-04-19T04:35:55;6.30;99.90
13123;DHT22;6627;50.920;12.050;2023-04-19T04:38:22;6.30;99.90
13123;DHT22;6627;50.920;12.050;2023-04-19T04:40:51;6.20;99.90
13123;DHT22;6627;50.920;12.050;2023-04-19T04:43:19;6.20;99.90
13123;DHT22;6627;50.920;12.050;2023-04-19T04:45:47;6.00;99.90
13123;DHT22;6627;50.920;12.050;2023-04-19T04:48:15;6.00;99.90
13123;DHT22;6627;50.920;12.050;2023-04-19T04:50:43;6.00;99.90
13123;DHT22;6627;50.920;12.050;2023-04-19T04:53:11;6.10;99.90
13123;DHT22;6627;50.920;12.050;2023-04-19T04:55:38;6.10;99.90
13123;DHT22;6627;50.920;12.050;2023-04-19T04:58:06;6.00;99.90
13123;DHT22;6627;50.920;12.050;2023-04-19T05:00:33;5.90;99.90
13123;DHT22;6627;50.920;12.050;2023-04-19T05:03:00;5.90;99.90
13123;DHT22;6627;50.920;12.050;2023-04-19T05:05:28;5.90;99.90
13123;DHT22;6627;50.920;12.050;2023-04-19T05:07:56;5.80;99.90
13123;DHT22;6627;50.920;12.050;2023-04-19T05:10:24;5.80;99.90
13123;DHT22;6627;50.920;12.050;2023-04-19T05:12:51;5.80;99.90
13123;DHT22;6627;50.920;12.050;2023-04-19T05:15:18;5.70;99.90
13123;DHT22;6627;50.920;12.050;2023-04-19T05:17:45;5.80;99.90
13123;DHT22;6627;50.920;12.050;2023-04-19T05:20:12;5.80;99.90
13123;DHT22;6627;50.920;12.050;2023-04-19T05:22:39;5.70;99.90
13123;DHT22;6627;50.920;12.050;2023-04-19T05:25:09;5.60;99.90
13123;DHT22;6627;50.920;12.050;2023-04-19T05:27:36;5.70;99.90
13123;DHT22;6627;50.920;12.050;2023-04-19T05:30:04;5.70;99.90
13123;DHT22;6627;50.920;12.050;2023-04-19T05:32:32;5.60;99.90
13123;DHT22;6627;50.920;12.050;2023-04-19T05:34:59;5.70;99.90
13123;DHT22;6627;50.920;12.050;2023-04-19T05:37:27;5.70;99.90
13123;DHT22;6627;50.920;12.050;2023-04-19T05:39:55;5.70;99.90
13123;DHT22;6627;50.920;12.050;2023-04-19T05:42:24;5.70;99.90
13123;DHT22;6627;50.920;12.050;2023-04-19T05:44:51;5.60;99.90
13123;DHT22;6627;50.920;12.050;2023-04-19T05:47:18;5.70;99.90
13123;DHT22;6627;50.920;12.050;2023-04-19T05:49:46;5.70;99.90
13123;DHT22;6627;50.920;12.050;2023-04-19T05:52:13;5.70;99.90
13123;DHT22;6627;50.920;12.050;2023-04-19T05:54:40;5.70;99.90
13123;DHT22;6627;50.920;12.050;2023-04-19T05:57:08;5.70;99.90
13123;DHT22;6627;50.920;12.050;2023-04-19T05:59:37;5.70;99.90
13123;DHT22;6627;50.920;12.050;2023-04-19T06:02:04;5.70;99.90
13123;DHT22;6627;50.920;12.050;2023-04-19T06:04:31;5.70;99.90
13123;DHT22;6627;50.920;12.050;2023-04-19T06:06:59;5.70;99.90
13123;DHT22;6627;50.920;12.050;2023-04-19T06:09:28;5.70;99.90
13123;DHT22;6627;50.920;12.050;2023-04-19T06:11:55;5.80;99.90
13123;DHT22;6627;50.920;12.050;2023-04-19T06:14:23;5.80;99.90
13123;DHT22;6627;50.920;12.050;2023-04-19T06:16:51;5.90;99.90
13123;DHT22;6627;50.920;12.050;2023-04-19T06:19:18;5.90;99.90
13123;DHT22;6627;50.920;12.050;2023-04-19T06:21:46;6.00;99.90
13123;DHT22;6627;50.920;12.050;2023-04-19T06:24:14;6.00;99.90
13123;DHT22;6627;50.920;12.050;2023-04-19T06:26:41;6.00;99.90
13123;DHT22;6627;50.920;12.050;2023-04-19T06:29:09;5.90;99.90
13123;DHT22;6627;50.920;12.050;2023-04-19T06:31:36;6.00;99.90
13123;DHT22;6627;50.920;12.050;2023-04-19T06:34:04;6.00;99.90
13123;DHT22;6627;50.920;12.050;2023-04-19T06:36:32;6.00;99.90
13123;DHT22;6627;50.920;12.050;2023-04-19T06:38:59;6.00;99.90
13123;DHT22;6627;50.920;12.050;2023-04-19T06:41:26;6.00;99.90
13123;DHT22;6627;50.920;12.050;2023-04-19T06:43:53;6.10;99.90
13123;DHT22;6627;50.920;12.050;2023-04-19T06:46:22;6.10;99.90
13123;DHT22;6627;50.920;12.050;2023-04-19T06:48:49;6.20;99.90
13123;DHT22;6627;50.920;12.050;2023-04-19T06:51:17;6.10;99.90
13123;DHT22;6627;50.920;12.050;2023-04-19T06:53:44;6.20;99.90
13123;DHT22;6627;50.920;12.050;2023-04-19T06:56:12;6.30;99.90
13123;DHT22;6627;50.920;12.050;2023-04-19T06:58:41;6.30;99.90
13123;DHT22;6627;50.920;12.050;2023-04-19T07:01:08;6.30;99.90
13123;DHT22;6627;50.920;12.050;2023-04-19T07:03:35;6.40;99.90
13123;DHT22;6627;50.920;12.050;2023-04-19T07:06:03;6.40;99.90
13123;DHT22;6627;50.920;12.050;2023-04-19T07:08:32;6.50;99.90
13123;DHT22;6627;50.920;12.050;2023-04-19T07:10:59;6.60;99.90
13123;DHT22;6627;50.920;12.050;2023-04-19T07:13:27;6.80;99.90
13123;DHT22;6627;50.920;12.050;2023-04-19T07:15:54;7.00;99.90
13123;DHT22;6627;50.920;12.050;2023-04-19T07:18:21;7.20;99.90
13123;DHT22;6627;50.920;12.050;2023-04-19T07:20:49;7.10;99.90
13123;DHT22;6627;50.920;12.050;2023-04-19T07:23:16;7.10;99.90
13123;DHT22;6627;50.920;12.050;2023-04-19T07:25:45;7.10;99.90
13123;DHT22;6627;50.920;12.050;2023-04-19T07:28:13;7.10;99.90
13123;DHT22;6627;50.920;12.050;2023-04-19T07:30:40;7.10;99.90
13123;DHT22;6627;50.920;12.050;2023-04-19T07:33:11;7.30;99.90
13123;DHT22;6627;50.920;12.050;2023-04-19T07:35:39;7.10;99.90
13123;DHT22;6627;50.920;12.050;2023-04-19T07:38:06;7.00;99.90
13123;DHT22;6627;50.920;12.050;2023-04-19T07:40:33;7.20;99.90
13123;DHT22;6627;50.920;12.050;2023-04-19T07:43:02;7.30;99.90
13123;DHT22;6627;50.920;12.050;2023-04-19T07:45:29;7.40;99.90
13123;DHT22;6627;50.920;12.050;2023-04-19T07:47:56;7.50;99.90
13123;DHT22;6627;50.920;12.050;2023-04-19T07:50:24;7.60;99.90
13123;DHT22;6627;50.920;12.050;2023-04-19T07:52:51;7.80;99.90
13123;DHT22;6627;50.920;12.050;2023-04-19T07:55:19;7.80;99.90
13123;DHT22;6627;50.920;12.050;2023-04-19T07:57:47;7.80;99.90
13123;DHT22;6627;50.920;12.050;2023-04-19T08:00:17;7.80;99.90
13123;DHT22;6627;50.920;12.050;2023-04-19T08:02:47;7.80;99.90
13123;DHT22;6627;50.920;12.050;2023-04-19T08:05:15;7.90;99.90
13123;DHT22;6627;50.920;12.050;2023-04-19T08:07:45;8.10;99.90
13123;DHT22;6627;50.920;12.050;2023-04-19T08:10:14;8.40;99.90
13123;DHT22;6627;50.920;12.050;2023-04-19T08:12:41;8.60;99.90
13123;DHT22;6627;50.920;12.050;2023-04-19T08:15:08;8.90;99.90
13123;DHT22;6627;50.920;12.050;2023-04-19T08:17:39;9.10;99.90
13123;DHT22;6627;50.920;12.050;2023-04-19T08:20:09;9.30;99.90
13123;DHT22;6627;50.920;12.050;2023-04-19T08:22:37;9.20;99.90
13123;DHT22;6627;50.920;12.050;2023-04-19T08:25:06;9.20;99.90
13123;DHT22;6627;50.920;12.050;2023-04-19T08:27:34;9.10;99.90
13123;DHT22;6627;50.920;12.050;2023-04-19T08:30:02;9.20;1.00
13123;DHT22;6627;50.920;12.050;2023-04-19T08:32:32;9.10;1.00
13123;DHT22;6627;50.920;12.050;2023-04-19T08:35:01;8.80;99.90
13123;DHT22;6627;50.920;12.050;2023-04-19T08:37:29;9.10;1.00
13123;DHT22;6627;50.920;12.050;2023-04-19T08:39:56;9.50;1.00
13123;DHT22;6627;50.920;12.050;2023-04-19T08:42:23;9.40;1.00
13123;DHT22;6627;50.920;12.050;2023-04-19T08:44:51;9.70;1.00
13123;DHT22;6627;50.920;12.050;2023-04-19T08:47:22;9.90;99.90
13123;DHT22;6627;50.920;12.050;2023-04-19T08:49:51;9.60;1.00
13123;DHT22;6627;50.920;12.050;2023-04-19T08:52:23;9.70;99.90
13123;DHT22;6627;50.920;12.050;2023-04-19T08:54:52;9.80;1.00
13123;DHT22;6627;50.920;12.050;2023-04-19T08:57:22;10.30;1.00
13123;DHT22;6627;50.920;12.050;2023-04-19T08:59:49;10.50;99.90
13123;DHT22;6627;50.920;12.050;2023-04-19T09:02:20;11.20;99.90
13123;DHT22;6627;50.920;12.050;2023-04-19T09:04:47;11.20;1.00
13123;DHT22;6627;50.920;12.050;2023-04-19T09:07:23;10.70;99.90
13123;DHT22;6627;50.920;12.050;2023-04-19T09:10:07;10.70;64.50
13123;DHT22;6627;50.920;12.050;2023-04-19T09:15:07;10.30;99.90
13123;DHT22;6627;50.920;12.050;2023-04-19T09:17:39;10.30;1.00
13123;DHT22;6627;50.920;12.050;2023-04-19T09:20:08;10.10;1.00
13123;DHT22;6627;50.920;12.050;2023-04-19T09:22:37;10.30;1.00
13123;DHT22;6627;50.920;12.050;2023-04-19T09:25:05;10.40;99.90
13123;DHT22;6627;50.920;12.050;2023-04-19T09:27:34;10.30;99.90
13123;DHT22;6627;50.920;12.050;2023-04-19T09:30:03;10.30;13.10
13123;DHT22;6627;50.920;12.050;2023-04-19T09:32:45;10.20;1.00
13123;DHT22;6627;50.920;12.050;2023-04-19T09:35:13;10.30;1.00
13123;DHT22;6627;50.920;12.050;2023-04-19T09:40:24;10.50;1.00
13123;DHT22;6627;50.920;12.050;2023-04-19T09:42:53;10.40;99.90
13123;DHT22;6627;50.920;12.050;2023-04-19T09:45:23;10.60;99.90
13123;DHT22;6627;50.920;12.050;2023-04-19T09:48:00;10.60;99.90
13123;DHT22;6627;50.920;12.050;2023-04-19T09:52:58;10.40;1.00
13123;DHT22;6627;50.920;12.050;2023-04-19T09:55:26;10.60;1.00
13123;DHT22;6627;50.920;12.050;2023-04-19T09:57:53;10.90;1.00
13123;DHT22;6627;50.920;12.050;2023-04-19T10:00:21;11.10;1.00
13123;DHT22;6627;50.920;12.050;2023-04-19T10:02:51;10.70;99.90
13123;DHT22;6627;50.920;12.050;2023-04-19T10:05:23;10.80;99.90
13123;DHT22;6627;50.920;12.050;2023-04-19T10:07:51;10.90;99.90
13123;DHT22;6627;50.920;12.050;2023-04-19T10:10:21;11.00;99.90
13123;DHT22;6627;50.920;12.050;2023-04-19T10:12:51;11.40;99.90
13123;DHT22;6627;50.920;12.050;2023-04-19T10:15:28;11.20;99.90
13123;DHT22;6627;50.920;12.050;2023-04-19T10:17:58;11.10;1.00
13123;DHT22;6627;50.920;12.050;2023-04-19T10:20:32;10.90;1.00
13123;DHT22;6627;50.920;12.050;2023-04-19T10:23:06;11.10;1.00
13123;DHT22;6627;50.920;12.050;2023-04-19T10:26:11;11.50;1.00
13123;DHT22;6627;50.920;12.050;2023-04-19T10:28:40;11.20;1.00
13123;DHT22;6627;50.920;12.050;2023-04-19T10:31:11;11.00;1.00
13123;DHT22;6627;50.920;12.050;2023-04-19T10:33:39;11.20;1.00
13123;DHT22;6627;50.920;12.050;2023-04-19T10:36:08;11.10;1.00
13123;DHT22;6627;50.920;12.050;2023-04-19T10:38:38;11.10;99.90
13123;DHT22;6627;50.920;12.050;2023-04-19T10:41:08;11.10;99.90
13123;DHT22;6627;50.920;12.050;2023-04-19T10:43:43;10.70;99.90
13123;DHT22;6627;50.920;12.050;2023-04-19T10:46:34;10.40;99.90
13123;DHT22;6627;50.920;12.050;2023-04-19T10:49:05;10.70;99.90
13123;DHT22;6627;50.920;12.050;2023-04-19T10:51:35;11.30;99.90
13123;DHT22;6627;50.920;12.050;2023-04-19T10:54:06;11.40;99.90
13123;DHT22;6627;50.920;12.050;2023-04-19T10:56:59;11.30;99.90
13123;DHT22;6627;50.920;12.050;2023-04-19T10:59:31;11.00;99.90
13123;DHT22;6627;50.920;12.050;2023-04-19T11:02:02;11.20;95.90
13123;DHT22;6627;50.920;12.050;2023-04-19T11:05:01;11.10;14.50
13123;DHT22;6627;50.920;12.050;2023-04-19T11:07:36;11.50;9.10
13123;DHT22;6627;50.920;12.050;2023-04-19T11:10:06;11.30;99.90
13123;DHT22;6627;50.920;12.050;2023-04-19T11:12:34;11.70;1.00
13123;DHT22;6627;50.920;12.050;2023-04-19T11:15:05;11.70;1.00
13123;DHT22;6627;50.920;12.050;2023-04-19T11:17:34;11.40;1.00
13123;DHT22;6627;50.920;12.050;2023-04-19T11:20:04;11.30;1.00
13123;DHT22;6627;50.920;12.050;2023-04-19T11:22:35;11.60;1.00
13123;DHT22;6627;50.920;12.050;2023-04-19T11:25:08;12.10;1.00
13123;DHT22;6627;50.920;12.050;2023-04-19T11:27:37;12.00;1.00
13123;DHT22;6627;50.920;12.050;2023-04-19T11:30:09;11.50;99.90
13123;DHT22;6627;50.920;12.050;2023-04-19T11:35:13;11.70;99.90
13123;DHT22;6627;50.920;12.050;2023-04-19T11:37:41;11.80;99.90
13123;DHT22;6627;50.920;12.050;2023-04-19T11:40:13;12.20;99.90
13123;DHT22;6627;50.920;12.050;2023-04-19T11:42:41;12.20;99.90
13123;DHT22;6627;50.920;12.050;2023-04-19T11:45:11;12.30;99.90
13123;DHT22;6627;50.920;12.050;2023-04-19T11:47:50;12.40;99.90
13123;DHT22;6627;50.920;12.050;2023-04-19T11:50:34;11.90;99.80
13123;DHT22;6627;50.920;12.050;2023-04-19T11:53:09;12.00;75.30
13123;DHT22;6627;50.920;12.050;2023-04-19T11:55:38;11.80;26.20
13123;DHT22;6627;50.920;12.050;2023-04-19T11:58:08;11.70;2.70
13123;DHT22;6627;50.920;12.050;2023-04-19T12:00:37;11.40;1.00
13123;DHT22;6627;50.920;12.050;2023-04-19T12:03:05;11.80;1.00
13123;DHT22;6627;50.920;12.050;2023-04-19T12:05:32;12.30;1.00
13123;DHT22;6627;50.920;12.050;2023-04-19T12:08:02;13.00;11.40
13123;DHT22;6627;50.920;12.050;2023-04-19T12:10:31;12.40;1.00
13123;DHT22;6627;50.920;12.050;2023-04-19T12:12:59;12.00;1.00
13123;DHT22;6627;50.920;12.050;2023-04-19T12:15:41;11.80;1.00
13123;DHT22;6627;50.920;12.050;2023-04-19T12:18:09;11.80;1.00
13123;DHT22;6627;50.920;12.050;2023-04-19T12:20:37;12.20;1.00
13123;DHT22;6627;50.920;12.050;2023-04-19T12:25:39;12.40;1.00
13123;DHT22;6627;50.920;12.050;2023-04-19T12:28:06;12.50;1.00
13123;DHT22;6627;50.920;12.050;2023-04-19T12:30:34;12.90;1.00
13123;DHT22;6627;50.920;12.050;2023-04-19T12:33:03;12.70;1.00
13123;DHT22;6627;50.920;12.050;2023-04-19T12:35:34;12.50;1.00
13123;DHT22;6627;50.920;12.050;2023-04-19T12:38:03;12.30;1.00
13123;DHT22;6627;50.920;12.050;2023-04-19T12:40:30;12.20;1.00
13123;DHT22;6627;50.920;12.050;2023-04-19T12:42:57;12.10;1.00
13123;DHT22;6627;50.920;12.050;2023-04-19T12:45:25;11.90;1.00
13123;DHT22;6627;50.920;12.050;2023-04-19T12:47:53;12.00;1.00
13123;DHT22;6627;50.920;12.050;2023-04-19T12:50:21;11.70;1.00
13123;DHT22;6627;50.920;12.050;2023-04-19T12:52:49;11.60;1.00
13123;DHT22;6627;50.920;12.050;2023-04-19T12:55:18;11.50;1.00
13123;DHT22;6627;50.920;12.050;2023-04-19T12:57:45;11.30;1.00
13123;DHT22;6627;50.920;12.050;2023-04-19T13:00:13;11.10;1.00
13123;DHT22;6627;50.920;12.050;2023-04-19T13:05:09;11.20;1.00
13123;DHT22;6627;50.920;12.050;2023-04-19T13:07:39;11.30;1.00
13123;DHT22;6627;50.920;12.050;2023-04-19T13:10:07;11.50;1.00
13123;DHT22;6627;50.920;12.050;2023-04-19T13:12:35;11.70;1.00
13123;DHT22;6627;50.920;12.050;2023-04-19T13:15:02;11.60;1.00
13123;DHT22;6627;50.920;12.050;2023-04-19T13:17:30;11.50;1.00
13123;DHT22;6627;50.920;12.050;2023-04-19T13:19:57;11.20;1.00
13123;DHT22;6627;50.920;12.050;2023-04-19T13:22:25;11.20;1.00
13123;DHT22;6627;50.920;12.050;2023-04-19T13:24:53;11.10;99.90
13123;DHT22;6627;50.920;12.050;2023-04-19T13:27:21;10.80;99.90
13123;DHT22;6627;50.920;12.050;2023-04-19T13:29:48;10.60;99.90
13123;DHT22;6627;50.920;12.050;2023-04-19T13:32:15;10.70;99.90
13123;DHT22;6627;50.920;12.050;2023-04-19T13:34:42;11.10;1.00
13123;DHT22;6627;50.920;12.050;2023-04-19T13:37:10;11.60;1.00
13123;DHT22;6627;50.920;12.050;2023-04-19T13:39:38;11.80;1.00
13123;DHT22;6627;50.920;12.050;2023-04-19T13:42:06;12.20;1.00
13123;DHT22;6627;50.920;12.050;2023-04-19T13:44:35;12.60;1.00
13123;DHT22;6627;50.920;12.050;2023-04-19T13:47:02;12.30;99.90
13123;DHT22;6627;50.920;12.050;2023-04-19T13:49:29;12.00;1.00
13123;DHT22;6627;50.920;12.050;2023-04-19T13:51:56;11.20;1.00
13123;DHT22;6627;50.920;12.050;2023-04-19T13:54:24;11.00;99.90
13123;DHT22;6627;50.920;12.050;2023-04-19T13:56:51;10.80;99.90
13123;DHT22;6627;50.920;12.050;2023-04-19T13:59:20;10.50;99.90
13123;DHT22;6627;50.920;12.050;2023-04-19T14:01:47;10.50;1.00
13123;DHT22;6627;50.920;12.050;2023-04-19T14:04:14;10.40;99.90
13123;DHT22;6627;50.920;12.050;2023-04-19T14:06:41;10.60;1.00
13123;DHT22;6627;50.920;12.050;2023-04-19T14:09:09;10.20;1.00
13123;DHT22;6627;50.920;12.050;2023-04-19T14:11:36;10.30;1.00
13123;DHT22;6627;50.920;12.050;2023-04-19T14:14:03;10.00;1.00
13123;DHT22;6627;50.920;12.050;2023-04-19T14:16:32;10.30;1.00
13123;DHT22;6627;50.920;12.050;2023-04-19T14:18:59;10.80;1.00
13123;DHT22;6627;50.920;12.050;2023-04-19T14:21:27;11.20;1.00
13123;DHT22;6627;50.920;12.050;2023-04-19T14:26:22;11.80;1.00
13123;DHT22;6627;50.920;12.050;2023-04-19T14:28:49;11.90;1.00
13123;DHT22;6627;50.920;12.050;2023-04-19T14:33:46;11.70;99.90
13123;DHT22;6627;50.920;12.050;2023-04-19T14:36:14;11.90;1.00
13123;DHT22;6627;50.920;12.050;2023-04-19T14:38:42;12.00;99.90
13123;DHT22;6627;50.920;12.050;2023-04-19T14:43:38;11.80;99.90
13123;DHT22;6627;50.920;12.050;2023-04-19T14:46:05;11.80;99.90
13123;DHT22;6627;50.920;12.050;2023-04-19T14:48:34;12.00;99.90
13123;DHT22;6627;50.920;12.050;2023-04-19T14:51:03;12.00;99.90
13123;DHT22;6627;50.920;12.050;2023-04-19T14:53:30;12.10;99.90
13123;DHT22;6627;50.920;12.050;2023-04-19T14:55:57;12.50;99.90
13123;DHT22;6627;50.920;12.050;2023-04-19T14:58:24;12.90;99.90
13123;DHT22;6627;50.920;12.050;2023-04-19T15:00:51;12.90;99.90
13123;DHT22;6627;50.920;12.050;2023-04-19T15:03:19;12.90;99.90
13123;DHT22;6627;50.920;12.050;2023-04-19T15:05:47;12.60;99.90
13123;DHT22;6627;50.920;12.050;2023-04-19T15:08:15;12.30;99.90
13123;DHT22;6627;50.920;12.050;2023-04-19T15:10:43;12.20;99.90
13123;DHT22;6627;50.920;12.050;2023-04-19T15:13:10;12.10;99.90
13123;DHT22;6627;50.920;12.050;2023-04-19T15:15:37;11.90;99.90
13123;DHT22;6627;50.920;12.050;2023-04-19T15:18:04;12.00;99.90
13123;DHT22;6627;50.920;12.050;2023-04-19T15:20:31;12.00;99.90
13123;DHT22;6627;50.920;12.050;2023-04-19T15:22:59;11.90;99.90
13123;DHT22;6627;50.920;12.050;2023-04-19T15:25:27;11.80;99.90
13123;DHT22;6627;50.920;12.050;2023-04-19T15:27:55;11.70;99.90
13123;DHT22;6627;50.920;12.050;2023-04-19T15:30:22;11.40;99.90
13123;DHT22;6627;50.920;12.050;2023-04-19T15:32:49;11.40;99.90
13123;DHT22;6627;50.920;12.050;2023-04-19T15:35:16;11.50;99.90
13123;DHT22;6627;50.920;12.050;2023-04-19T15:37:45;11.50;99.90
13123;DHT22;6627;50.920;12.050;2023-04-19T15:40:12;11.40;99.90
13123;DHT22;6627;50.920;12.050;2023-04-19T15:42:45;11.50;99.90
13123;DHT22;6627;50.920;12.050;2023-04-19T15:45:14;11.60;99.90
13123;DHT22;6627;50.920;12.050;2023-04-19T15:47:42;11.40;99.90
13123;DHT22;6627;50.920;12.050;2023-04-19T15:50:12;11.20;99.90
13123;DHT22;6627;50.920;12.050;2023-04-19T15:52:39;11.20;99.90
13123;DHT22;6627;50.920;12.050;2023-04-19T15:55:07;11.30;99.90
13123;DHT22;6627;50.920;12.050;2023-04-19T15:57:36;11.30;99.90
13123;DHT22;6627;50.920;12.050;2023-04-19T16:00:06;11.10;99.90
13123;DHT22;6627;50.920;12.050;2023-04-19T16:02:34;10.90;99.90
13123;DHT22;6627;50.920;12.050;2023-04-19T16:05:01;10.20;1.00
13123;DHT22;6627;50.920;12.050;2023-04-19T16:07:28;10.20;1.00
13123;DHT22;6627;50.920;12.050;2023-04-19T16:09:55;10.00;1.00
13123;DHT22;6627;50.920;12.050;2023-04-19T16:12:23;10.00;1.00
13123;DHT22;6627;50.920;12.050;2023-04-19T16:14:50;9.80;1.00
13123;DHT22;6627;50.920;12.050;2023-04-19T16:17:19;9.50;1.00
13123;DHT22;6627;50.920;12.050;2023-04-19T16:19:46;9.30;1.00
13123;DHT22;6627;50.920;12.050;2023-04-19T16:22:13;9.40;1.00
13123;DHT22;6627;50.920;12.050;2023-04-19T16:24:40;9.50;1.00